createdAt,value
2022-09-11T00:03:08.443Z,1006.344
2022-09-11T00:23:07.258Z,1006.395
2022-09-11T00:43:08.002Z,1006.449
2022-09-11T01:03:08.675Z,1006.544
2022-09-11T01:23:07.561Z,1006.711
2022-09-11T01:43:07.456Z,1006.975
2022-09-11T02:03:08.178Z,1007.072
2022-09-11T02:23:08.035Z,1007.13
2022-09-11T02:43:07.863Z,1007.256
2022-09-11T03:03:08.693Z,1007.437
2022-09-11T03:23:07.396Z,1007.554
2022-09-11T03:43:07.341Z,1007.671
2022-09-11T04:03:08.103Z,1007.649
2022-09-11T04:23:08.000Z,1007.776
2022-09-11T04:43:08.127Z,1007.912
2022-09-11T05:03:08.369Z,1008.14
2022-09-11T05:23:07.208Z,1008.35
2022-09-11T05:43:07.961Z,1008.563
2022-09-11T06:03:15.703Z,1008.791
2022-09-11T06:23:10.273Z,1009.032
2022-09-11T06:43:08.131Z,1009.085
2022-09-11T07:03:09.042Z,1009.219
2022-09-11T07:23:07.768Z,1009.372
2022-09-11T07:43:07.670Z,1009.44
2022-09-11T08:03:08.403Z,1009.531
2022-09-11T08:23:07.227Z,1009.66
2022-09-11T08:43:08.040Z,1009.908
2022-09-11T09:03:08.799Z,1010.068
2022-09-11T09:23:07.912Z,1010.283
2022-09-11T09:43:07.882Z,1010.366
2022-09-11T10:03:08.893Z,1010.442
2022-09-11T10:23:07.811Z,1010.579
2022-09-11T10:43:07.881Z,1010.675
2022-09-11T11:03:08.834Z,1010.644
2022-09-11T11:23:07.770Z,1010.639
2022-09-11T11:43:07.994Z,1010.724
2022-09-11T12:03:09.028Z,1010.662
2022-09-11T12:23:07.825Z,1010.623
2022-09-11T12:43:10.070Z,1010.559
2022-09-11T13:03:08.994Z,1010.439
2022-09-11T13:23:07.925Z,1010.275
2022-09-11T13:43:07.949Z,1010.118
2022-09-11T14:03:08.882Z,1009.947
2022-09-11T14:23:07.929Z,1009.854
2022-09-11T14:43:08.135Z,1009.715
2022-09-11T15:03:09.141Z,1009.571
2022-09-11T15:23:08.143Z,1009.438
2022-09-11T15:43:08.085Z,1009.297
2022-09-11T16:03:09.011Z,1009.158
2022-09-11T16:23:07.881Z,1009.253
2022-09-11T16:43:07.879Z,1009.05
2022-09-11T17:03:08.708Z,1009.008
2022-09-11T17:23:07.507Z,1009.053
2022-09-11T17:43:07.625Z,1009.042
2022-09-11T18:03:08.624Z,1009.091
2022-09-11T18:23:07.410Z,1009.259
2022-09-11T18:43:07.769Z,1009.211
2022-09-11T19:03:08.656Z,1009.418
2022-09-11T19:23:07.497Z,1009.501
2022-09-11T19:43:07.666Z,1009.539
2022-09-11T20:03:08.521Z,1009.501
2022-09-11T20:23:07.274Z,1009.523
2022-09-11T20:43:07.347Z,1009.579
2022-09-11T21:03:08.428Z,1009.529
2022-09-11T21:23:07.242Z,1009.3
2022-09-11T21:43:07.296Z,1009.261
2022-09-11T22:03:08.456Z,1009.215
2022-09-11T22:23:07.233Z,1009.286
2022-09-11T22:43:07.965Z,1009.229
2022-09-11T23:03:08.855Z,1009.073
2022-09-11T23:23:07.594Z,1009.048
2022-09-11T23:43:07.349Z,1009.036
